createdAt,value
2023-01-17T00:01:59.497Z,3.25
2023-01-17T00:04:44.784Z,3.00
2023-01-17T00:07:32.194Z,3.00
2023-01-17T00:10:01.080Z,3.00
2023-01-17T00:12:30.481Z,3.00
2023-01-17T00:14:58.756Z,3.25
2023-01-17T00:17:27.294Z,1.75
2023-01-17T00:20:13.535Z,3.00
2023-01-17T00:23:01.016Z,2.00
2023-01-17T00:25:56.309Z,1.00
2023-01-17T00:28:24.046Z,2.00
2023-01-17T00:30:50.574Z,2.00
2023-01-17T00:33:17.263Z,2.00
2023-01-17T00:35:44.222Z,1.25
2023-01-17T00:38:12.308Z,1.75
2023-01-17T00:40:41.077Z,1.00
2023-01-17T00:43:27.883Z,1.75
2023-01-17T00:46:13.280Z,2.00
2023-01-17T00:48:59.113Z,1.50
2023-01-17T00:51:45.032Z,2.00
2023-01-17T00:54:30.470Z,2.00
2023-01-17T00:57:15.623Z,1.00
2023-01-17T01:00:00.818Z,2.00
2023-01-17T01:02:46.514Z,2.00
2023-01-17T01:05:33.456Z,2.00
2023-01-17T01:08:18.916Z,1.00
2023-01-17T01:11:05.967Z,2.25
2023-01-17T01:13:51.833Z,1.50
2023-01-17T01:16:38.514Z,2.00
2023-01-17T01:19:24.473Z,1.00
2023-01-17T01:22:10.035Z,1.00
2023-01-17T01:24:55.210Z,1.00
2023-01-17T01:27:40.145Z,2.00
2023-01-17T01:30:26.147Z,2.00
2023-01-17T01:33:11.053Z,1.00
2023-01-17T01:35:37.646Z,1.00
2023-01-17T01:38:04.594Z,2.00
2023-01-17T01:40:31.196Z,1.50
2023-01-17T01:42:59.818Z,1.00
2023-01-17T01:45:28.913Z,1.00
2023-01-17T01:48:02.559Z,1.00
2023-01-17T01:50:31.256Z,1.00
2023-01-17T01:53:02.483Z,1.00
2023-01-17T01:55:33.491Z,1.50
2023-01-17T01:58:04.350Z,1.50
2023-01-17T02:00:35.968Z,1.25
2023-01-17T02:03:07.430Z,1.00
2023-01-17T02:05:35.374Z,1.00
2023-01-17T02:08:03.253Z,0.25
2023-01-17T02:10:37.864Z,1.75
2023-01-17T02:13:05.632Z,2.00
2023-01-17T02:15:58.716Z,1.50
2023-01-17T02:19:01.345Z,2.00
2023-01-17T02:21:38.547Z,1.00
2023-01-17T02:24:24.045Z,1.00
2023-01-17T02:27:24.427Z,1.00
2023-01-17T02:30:03.056Z,1.00
2023-01-17T02:32:45.177Z,2.00
2023-01-17T02:35:48.524Z,1.25
2023-01-17T02:38:38.935Z,2.00
2023-01-17T02:41:36.296Z,2.00
2023-01-17T02:44:03.783Z,3.00
2023-01-17T02:46:30.532Z,2.00
2023-01-17T02:48:58.380Z,2.25
2023-01-17T02:51:40.031Z,2.00
2023-01-17T02:54:15.817Z,1.00
2023-01-17T02:56:49.954Z,1.75
2023-01-17T02:59:38.564Z,1.00
2023-01-17T03:02:14.266Z,1.00
2023-01-17T03:04:55.839Z,0.00
2023-01-17T03:07:26.074Z,0.00
2023-01-17T03:09:59.448Z,0.00
2023-01-17T03:12:30.240Z,0.00
2023-01-17T03:14:57.240Z,0.00
2023-01-17T03:17:31.858Z,0.00
2023-01-17T03:19:58.877Z,0.00
2023-01-17T03:22:25.450Z,0.00
2023-01-17T03:24:52.108Z,0.00
2023-01-17T03:27:18.701Z,0.00
2023-01-17T03:29:45.293Z,0.00
2023-01-17T03:32:11.878Z,0.00
2023-01-17T03:34:38.466Z,0.00
2023-01-17T03:37:05.051Z,0.00
2023-01-17T03:39:31.589Z,0.00
2023-01-17T03:42:00.687Z,0.00
2023-01-17T03:44:27.255Z,0.00
2023-01-17T03:46:53.798Z,0.00
2023-01-17T03:49:20.885Z,0.00
2023-01-17T03:51:47.476Z,0.00
2023-01-17T03:54:14.114Z,0.00
2023-01-17T03:56:40.684Z,0.00
2023-01-17T03:59:07.273Z,1.00
2023-01-17T04:01:33.953Z,0.00
2023-01-17T04:04:00.652Z,0.00
2023-01-17T04:06:28.500Z,1.00
2023-01-17T04:08:55.086Z,0.00
2023-01-17T04:11:21.692Z,0.00
2023-01-17T04:13:48.270Z,0.00
2023-01-17T04:16:18.317Z,0.00
2023-01-17T04:18:44.992Z,0.00
2023-01-17T04:21:11.583Z,0.00
2023-01-17T04:23:38.477Z,0.00
2023-01-17T04:26:05.470Z,0.00
2023-01-17T04:28:32.120Z,0.00
2023-01-17T04:31:00.023Z,0.00
2023-01-17T04:33:26.961Z,0.00
2023-01-17T04:35:54.401Z,0.00
2023-01-17T04:38:23.798Z,0.00
2023-01-17T04:40:51.358Z,0.00
2023-01-17T04:43:17.963Z,0.00
2023-01-17T04:45:44.483Z,0.00
2023-01-17T04:48:12.760Z,0.00
2023-01-17T04:50:40.152Z,0.00
2023-01-17T04:53:06.786Z,0.00
2023-01-17T04:55:33.326Z,0.00
2023-01-17T04:57:59.929Z,0.00
2023-01-17T05:00:26.611Z,0.00
2023-01-17T05:02:53.430Z,0.00
2023-01-17T05:05:20.107Z,0.00
2023-01-17T05:07:54.015Z,0.00
2023-01-17T05:10:20.587Z,0.00
2023-01-17T05:12:55.021Z,0.00
2023-01-17T05:15:22.314Z,0.00
2023-01-17T05:17:50.128Z,0.00
2023-01-17T05:20:16.804Z,0.00
2023-01-17T05:22:43.444Z,0.00
2023-01-17T05:25:10.311Z,0.00
2023-01-17T05:27:37.290Z,0.00
2023-01-17T05:30:04.426Z,0.00
2023-01-17T05:32:31.113Z,2.00
2023-01-17T05:34:57.709Z,3.25
2023-01-17T05:37:24.352Z,4.00
2023-01-17T05:39:54.015Z,0.25
2023-01-17T05:42:20.591Z,0.00
2023-01-17T05:44:47.841Z,0.00
2023-01-17T05:47:14.408Z,1.75
2023-01-17T05:49:41.008Z,0.00
2023-01-17T05:52:07.555Z,0.00
2023-01-17T05:54:34.513Z,0.00
2023-01-17T05:57:01.089Z,0.00
2023-01-17T05:59:36.958Z,0.25
2023-01-17T06:02:04.282Z,1.00
2023-01-17T06:04:31.012Z,0.00
2023-01-17T06:06:57.655Z,0.75
2023-01-17T06:09:24.277Z,0.00
2023-01-17T06:11:50.859Z,0.00
2023-01-17T06:14:17.394Z,0.50
2023-01-17T06:16:43.964Z,1.00
2023-01-17T06:19:10.579Z,0.00
2023-01-17T06:21:37.312Z,0.00
2023-01-17T06:24:04.398Z,0.00
2023-01-17T06:26:32.169Z,0.00
2023-01-17T06:28:58.776Z,0.00
2023-01-17T06:31:25.382Z,0.00
2023-01-17T06:33:51.994Z,0.00
2023-01-17T06:36:18.575Z,0.00
2023-01-17T06:38:45.136Z,0.00
2023-01-17T06:41:11.656Z,0.00
2023-01-17T06:43:38.294Z,0.00
2023-01-17T06:46:05.027Z,0.00
2023-01-17T06:48:31.643Z,0.00
2023-01-17T06:50:58.378Z,0.00
2023-01-17T06:53:25.021Z,0.00
2023-01-17T06:55:52.600Z,0.00
2023-01-17T06:58:19.207Z,0.00
2023-01-17T07:00:45.905Z,0.00
2023-01-17T07:03:23.458Z,0.00
2023-01-17T07:05:50.775Z,0.00
2023-01-17T07:08:18.845Z,0.00
2023-01-17T07:10:46.716Z,0.00
2023-01-17T07:13:14.247Z,0.00
2023-01-17T07:15:40.842Z,0.00
2023-01-17T07:18:08.000Z,0.00
2023-01-17T07:20:34.639Z,0.00
2023-01-17T07:23:03.080Z,0.25
2023-01-17T07:25:29.679Z,1.00
2023-01-17T07:27:57.603Z,0.00
2023-01-17T07:30:24.908Z,0.00
2023-01-17T07:32:54.864Z,0.00
2023-01-17T07:35:22.981Z,0.00
2023-01-17T07:37:50.583Z,0.00
2023-01-17T07:40:20.634Z,1.00
2023-01-17T07:42:47.517Z,1.00
2023-01-17T07:45:16.019Z,1.00
2023-01-17T07:47:42.735Z,0.00
2023-01-17T07:50:10.100Z,0.75
2023-01-17T07:52:36.662Z,0.00
2023-01-17T07:55:03.438Z,0.00
2023-01-17T07:57:30.260Z,0.25
2023-01-17T07:59:56.845Z,1.75
2023-01-17T08:02:23.782Z,0.00
2023-01-17T08:04:50.376Z,0.00
2023-01-17T08:07:17.180Z,0.00
2023-01-17T08:09:44.790Z,0.75
2023-01-17T08:12:11.391Z,0.00
2023-01-17T08:14:37.960Z,0.00
2023-01-17T08:17:05.550Z,0.00
2023-01-17T08:19:32.154Z,1.00
2023-01-17T08:21:58.749Z,1.00
2023-01-17T08:24:25.290Z,0.00
2023-01-17T08:26:54.962Z,1.00
2023-01-17T08:29:21.663Z,1.25
2023-01-17T08:31:48.554Z,1.00
2023-01-17T08:34:15.229Z,1.00
2023-01-17T08:36:45.457Z,0.50
2023-01-17T08:39:13.089Z,1.00
2023-01-17T08:41:39.744Z,1.00
2023-01-17T08:44:06.475Z,0.00
2023-01-17T08:46:33.039Z,0.75
2023-01-17T08:49:00.184Z,0.00
2023-01-17T08:51:27.618Z,0.00
2023-01-17T08:53:55.718Z,1.00
2023-01-17T08:56:23.805Z,1.00
2023-01-17T08:58:50.379Z,0.25
2023-01-17T09:01:17.140Z,0.00
2023-01-17T09:03:43.911Z,0.00
2023-01-17T09:06:13.195Z,0.00
2023-01-17T09:08:40.554Z,0.00
2023-01-17T09:11:12.321Z,0.00
2023-01-17T09:13:39.779Z,0.75
2023-01-17T09:16:07.297Z,1.00
2023-01-17T09:18:36.121Z,0.00
2023-01-17T09:21:17.793Z,0.00
2023-01-17T09:23:44.956Z,0.00
2023-01-17T09:26:21.094Z,0.00
2023-01-17T09:28:48.120Z,0.00
2023-01-17T09:31:17.390Z,1.00
2023-01-17T09:33:44.253Z,1.00
2023-01-17T09:36:11.193Z,0.00
2023-01-17T09:38:38.366Z,0.00
2023-01-17T09:41:21.749Z,0.00
2023-01-17T09:44:06.268Z,0.00
2023-01-17T09:46:40.022Z,0.00
2023-01-17T09:49:34.905Z,0.00
2023-01-17T09:52:02.407Z,1.00
2023-01-17T09:54:35.556Z,0.75
2023-01-17T09:57:13.340Z,0.00
2023-01-17T10:00:04.149Z,0.50
2023-01-17T10:03:08.405Z,1.00
2023-01-17T10:05:40.657Z,0.00
2023-01-17T10:08:07.416Z,0.25
2023-01-17T10:10:34.053Z,0.00
2023-01-17T10:13:06.430Z,0.00
2023-01-17T10:16:24.289Z,0.00
2023-01-17T10:19:01.742Z,1.00
2023-01-17T10:21:55.107Z,0.00
2023-01-17T10:24:30.891Z,0.00
2023-01-17T10:26:59.022Z,0.00
2023-01-17T10:29:32.859Z,0.00
2023-01-17T10:32:01.047Z,0.00
2023-01-17T10:34:41.677Z,0.00
2023-01-17T10:37:30.659Z,0.00
2023-01-17T10:40:14.055Z,1.00
2023-01-17T10:43:07.245Z,1.00
2023-01-17T10:45:43.646Z,0.25
2023-01-17T10:48:29.614Z,1.00
2023-01-17T10:51:19.029Z,0.00
2023-01-17T10:54:08.878Z,0.00
2023-01-17T10:56:40.539Z,1.00
2023-01-17T10:59:32.448Z,0.00
2023-01-17T11:02:00.675Z,0.75
2023-01-17T11:04:38.918Z,1.00
2023-01-17T11:07:22.140Z,0.25
2023-01-17T11:09:54.060Z,0.25
2023-01-17T11:12:33.989Z,0.00
2023-01-17T11:15:25.950Z,1.00
2023-01-17T11:18:02.641Z,0.00
2023-01-17T11:20:38.439Z,0.00
2023-01-17T11:23:08.226Z,0.00
2023-01-17T11:25:35.348Z,0.00
2023-01-17T11:28:07.983Z,0.00
2023-01-17T11:30:34.857Z,0.00
2023-01-17T11:33:04.804Z,0.00
2023-01-17T11:35:33.089Z,0.00
2023-01-17T11:38:04.757Z,0.00
2023-01-17T11:40:38.456Z,0.00
2023-01-17T11:43:18.800Z,0.00
2023-01-17T11:45:47.667Z,0.00
2023-01-17T11:48:17.818Z,0.00
2023-01-17T11:50:58.660Z,0.00
2023-01-17T11:53:33.332Z,0.00
2023-01-17T11:56:11.951Z,0.00
2023-01-17T11:58:42.780Z,0.00
2023-01-17T12:01:29.873Z,0.00
2023-01-17T12:04:22.822Z,0.00
2023-01-17T12:07:08.009Z,1.00
2023-01-17T12:09:49.599Z,0.75
2023-01-17T12:12:43.482Z,0.25
2023-01-17T12:15:23.343Z,0.00
2023-01-17T12:18:22.279Z,1.00
2023-01-17T12:21:03.341Z,0.50
2023-01-17T12:23:41.942Z,0.00
2023-01-17T12:26:39.339Z,0.00
2023-01-17T12:29:23.999Z,0.00
2023-01-17T12:32:13.323Z,0.00
2023-01-17T12:34:47.496Z,1.00
2023-01-17T12:37:19.887Z,0.75
2023-01-17T12:39:56.961Z,0.00
2023-01-17T12:42:28.292Z,0.00
2023-01-17T12:45:15.276Z,1.00
2023-01-17T12:47:54.472Z,3.25
2023-01-17T12:50:30.981Z,3.00
2023-01-17T12:53:36.457Z,1.50
2023-01-17T12:56:09.043Z,4.25
2023-01-17T12:59:15.753Z,1.00
2023-01-17T13:01:57.371Z,0.75
2023-01-17T13:04:57.423Z,0.00
2023-01-17T13:07:53.351Z,0.00
2023-01-17T13:10:51.212Z,0.00
2023-01-17T13:13:24.253Z,0.00
2023-01-17T13:16:00.705Z,0.00
2023-01-17T13:18:29.899Z,0.50
2023-01-17T13:21:21.379Z,0.00
2023-01-17T13:23:59.101Z,1.00
2023-01-17T13:26:46.810Z,0.00
2023-01-17T13:29:39.894Z,0.00
2023-01-17T13:32:34.046Z,0.00
2023-01-17T13:35:22.685Z,0.00
2023-01-17T13:37:55.133Z,0.50
2023-01-17T13:40:34.456Z,0.25
2023-01-17T13:43:03.113Z,1.00
2023-01-17T13:45:32.373Z,0.00
2023-01-17T13:48:23.353Z,1.00
2023-01-17T13:50:58.139Z,0.75
2023-01-17T13:53:27.588Z,2.00
2023-01-17T13:56:23.173Z,6.50
2023-01-17T13:58:54.660Z,0.50
2023-01-17T14:01:24.600Z,0.00
2023-01-17T14:03:51.577Z,0.00
2023-01-17T14:06:55.637Z,1.00
2023-01-17T14:09:26.133Z,1.75
2023-01-17T14:12:04.893Z,1.25
2023-01-17T14:14:40.623Z,0.00
2023-01-17T14:17:16.364Z,0.00
2023-01-17T14:19:48.510Z,0.75
2023-01-17T14:22:26.734Z,0.00
2023-01-17T14:25:11.607Z,0.00
2023-01-17T14:27:53.590Z,0.00
2023-01-17T14:30:35.317Z,0.00
2023-01-17T14:33:01.934Z,1.00
2023-01-17T14:35:32.897Z,0.00
2023-01-17T14:38:05.351Z,0.00
2023-01-17T14:40:34.311Z,0.00
2023-01-17T14:43:05.705Z,0.00
2023-01-17T14:45:35.191Z,0.00
2023-01-17T14:48:05.970Z,1.00
2023-01-17T14:50:38.052Z,1.00
2023-01-17T14:53:18.026Z,0.00
2023-01-17T14:55:47.384Z,0.00
2023-01-17T14:58:28.492Z,0.00
2023-01-17T15:01:04.672Z,0.00
2023-01-17T15:03:41.012Z,0.00
2023-01-17T15:06:15.757Z,0.00
2023-01-17T15:08:42.397Z,0.00
2023-01-17T15:11:16.868Z,0.00
2023-01-17T15:13:49.846Z,0.00
2023-01-17T15:16:21.216Z,2.25
2023-01-17T15:18:48.345Z,0.00
2023-01-17T15:21:21.267Z,0.00
2023-01-17T15:23:54.738Z,0.50
2023-01-17T15:26:24.782Z,0.00
2023-01-17T15:28:53.429Z,1.25
2023-01-17T15:31:22.992Z,0.00
2023-01-17T15:33:55.832Z,0.00
2023-01-17T15:36:32.592Z,0.00
2023-01-17T15:39:07.195Z,0.00
2023-01-17T15:41:36.210Z,0.00
2023-01-17T15:44:04.883Z,0.00
2023-01-17T15:46:43.259Z,0.00
2023-01-17T15:49:18.111Z,0.25
2023-01-17T15:51:47.140Z,0.00
2023-01-17T15:54:32.965Z,1.75
2023-01-17T15:57:14.692Z,1.00
2023-01-17T15:59:46.359Z,0.00
2023-01-17T16:02:33.045Z,0.00
2023-01-17T16:05:02.031Z,0.00
2023-01-17T16:07:35.891Z,0.00
2023-01-17T16:10:17.689Z,0.00
2023-01-17T16:12:48.380Z,0.00
2023-01-17T16:15:18.339Z,0.00
2023-01-17T16:17:48.001Z,0.00
2023-01-17T16:20:22.198Z,0.00
2023-01-17T16:22:49.831Z,0.00
2023-01-17T16:25:19.566Z,0.00
2023-01-17T16:27:46.539Z,0.00
2023-01-17T16:30:18.950Z,0.00
2023-01-17T16:32:48.517Z,1.00
2023-01-17T16:35:19.215Z,0.25
2023-01-17T16:37:51.208Z,1.25
2023-01-17T16:40:19.931Z,0.00
2023-01-17T16:42:47.044Z,1.00
2023-01-17T16:45:14.554Z,1.00
2023-01-17T16:47:45.912Z,2.00
2023-01-17T16:50:14.789Z,2.00
2023-01-17T16:52:41.474Z,2.00
2023-01-17T16:55:15.019Z,1.00
2023-01-17T16:57:42.095Z,1.50
2023-01-17T17:00:10.782Z,2.00
2023-01-17T17:02:39.056Z,1.00
2023-01-17T17:05:08.471Z,0.75
2023-01-17T17:07:46.328Z,1.00
2023-01-17T17:10:14.815Z,0.00
2023-01-17T17:12:41.581Z,0.00
2023-01-17T17:15:09.537Z,0.25
2023-01-17T17:17:41.349Z,1.00
2023-01-17T17:20:13.049Z,0.00
2023-01-17T17:22:48.936Z,1.00
2023-01-17T17:25:16.081Z,1.00
2023-01-17T17:27:43.302Z,0.00
2023-01-17T17:30:10.772Z,0.75
2023-01-17T17:32:37.385Z,1.50
2023-01-17T17:35:04.451Z,0.00
2023-01-17T17:37:31.030Z,0.00
2023-01-17T17:39:58.045Z,1.00
2023-01-17T17:42:24.700Z,1.00
2023-01-17T17:44:51.389Z,0.00
2023-01-17T17:47:18.039Z,3.50
2023-01-17T17:49:44.639Z,3.00
2023-01-17T17:52:11.381Z,2.00
2023-01-17T17:54:38.036Z,2.50
2023-01-17T17:57:04.773Z,3.00
2023-01-17T17:59:31.360Z,2.00
2023-01-17T18:01:59.760Z,2.75
2023-01-17T18:04:27.176Z,1.75
2023-01-17T18:06:57.906Z,1.00
2023-01-17T18:09:24.811Z,3.00
2023-01-17T18:11:51.517Z,2.00
2023-01-17T18:14:21.019Z,2.00
2023-01-17T18:16:50.152Z,2.50
2023-01-17T18:19:23.163Z,1.00
2023-01-17T18:21:51.419Z,3.00
2023-01-17T18:24:20.975Z,2.75
2023-01-17T18:26:52.626Z,2.50
2023-01-17T18:29:21.126Z,2.75
2023-01-17T18:31:51.988Z,2.25
2023-01-17T18:34:24.385Z,1.00
2023-01-17T18:36:51.547Z,0.25
2023-01-17T18:39:24.635Z,1.00
2023-01-17T18:41:51.768Z,2.00
2023-01-17T18:44:21.826Z,1.00
2023-01-17T18:46:50.368Z,1.00
2023-01-17T18:49:19.312Z,2.00
2023-01-17T18:51:50.454Z,0.25
2023-01-17T18:54:18.768Z,4.00
2023-01-17T18:56:45.539Z,4.00
2023-01-17T18:59:13.420Z,4.00
2023-01-17T19:01:43.833Z,2.75
2023-01-17T19:04:11.835Z,2.00
2023-01-17T19:06:41.625Z,4.50
2023-01-17T19:09:09.345Z,4.00
2023-01-17T19:11:36.890Z,5.00
2023-01-17T19:14:05.026Z,2.50
2023-01-17T19:16:35.707Z,3.00
2023-01-17T19:19:05.620Z,3.00
2023-01-17T19:21:32.636Z,5.25
2023-01-17T19:23:59.838Z,3.00
2023-01-17T19:26:27.807Z,3.00
2023-01-17T19:28:56.264Z,2.00
2023-01-17T19:31:25.317Z,3.00
2023-01-17T19:33:54.412Z,3.00
2023-01-17T19:36:25.704Z,1.00
2023-01-17T19:39:04.033Z,3.00
2023-01-17T19:41:33.036Z,3.75
2023-01-17T19:44:02.291Z,4.00
2023-01-17T19:46:28.931Z,3.25
2023-01-17T19:48:56.908Z,3.50
2023-01-17T19:51:24.932Z,1.25
2023-01-17T19:53:51.635Z,1.00
2023-01-17T19:56:24.159Z,1.75
2023-01-17T19:58:52.147Z,1.00
2023-01-17T20:01:22.149Z,1.00
2023-01-17T20:03:50.273Z,0.00
2023-01-17T20:06:23.050Z,0.00
2023-01-17T20:08:50.064Z,1.00
2023-01-17T20:11:19.767Z,2.00
2023-01-17T20:13:47.844Z,0.00
2023-01-17T20:16:16.325Z,1.00
2023-01-17T20:18:43.192Z,2.00
2023-01-17T20:21:24.160Z,2.00
2023-01-17T20:23:51.667Z,2.50
2023-01-17T20:26:21.112Z,1.00
2023-01-17T20:28:49.702Z,3.00
2023-01-17T20:31:20.497Z,4.00
2023-01-17T20:33:50.341Z,3.25
2023-01-17T20:36:18.475Z,4.00
2023-01-17T20:38:45.567Z,2.75
2023-01-17T20:41:16.550Z,2.00
2023-01-17T20:43:44.895Z,2.00
2023-01-17T20:46:12.404Z,2.50
2023-01-17T20:48:44.313Z,0.00
2023-01-17T20:51:11.726Z,1.75
2023-01-17T20:53:40.151Z,0.00
2023-01-17T20:56:08.794Z,0.00
2023-01-17T20:58:35.907Z,0.00
2023-01-17T21:01:02.632Z,1.00
2023-01-17T21:03:29.404Z,0.00
2023-01-17T21:06:06.011Z,0.00
2023-01-17T21:08:37.717Z,0.00
2023-01-17T21:11:06.073Z,0.00
2023-01-17T21:13:32.738Z,1.00
2023-01-17T21:15:59.884Z,1.00
2023-01-17T21:18:28.493Z,1.25
2023-01-17T21:20:55.087Z,1.00
2023-01-17T21:23:23.554Z,1.00
2023-01-17T21:25:57.209Z,1.00
2023-01-17T21:28:29.562Z,1.00
2023-01-17T21:30:57.263Z,1.00
2023-01-17T21:33:25.858Z,0.00
2023-01-17T21:35:52.543Z,0.00
2023-01-17T21:38:19.291Z,0.00
2023-01-17T21:40:45.969Z,1.00
2023-01-17T21:43:12.900Z,1.75
2023-01-17T21:45:40.891Z,1.00
2023-01-17T21:48:12.216Z,0.50
2023-01-17T21:50:39.161Z,0.50
2023-01-17T21:53:05.967Z,0.00
2023-01-17T21:55:51.298Z,0.00
2023-01-17T21:58:36.837Z,0.00
2023-01-17T22:01:17.829Z,0.00
2023-01-17T22:03:55.473Z,0.75
2023-01-17T22:06:24.567Z,1.00
2023-01-17T22:08:51.160Z,1.00
2023-01-17T22:11:20.912Z,1.00
2023-01-17T22:13:47.824Z,3.50
2023-01-17T22:16:17.315Z,3.00
2023-01-17T22:18:45.059Z,1.00
2023-01-17T22:21:17.677Z,1.00
2023-01-17T22:23:57.982Z,2.00
2023-01-17T22:26:27.300Z,2.00
2023-01-17T22:28:54.897Z,0.00
2023-01-17T22:31:26.640Z,0.00
2023-01-17T22:33:59.525Z,0.00
2023-01-17T22:36:26.826Z,0.50
2023-01-17T22:38:53.658Z,0.00
2023-01-17T22:41:23.902Z,0.00
2023-01-17T22:43:53.301Z,0.00
2023-01-17T22:46:25.823Z,0.00
2023-01-17T22:48:53.747Z,0.00
2023-01-17T22:51:22.148Z,0.00
2023-01-17T22:53:51.162Z,0.00
2023-01-17T22:56:26.545Z,0.00
2023-01-17T22:58:53.663Z,0.00
2023-01-17T23:01:22.718Z,0.00
2023-01-17T23:03:54.479Z,0.00
2023-01-17T23:06:27.325Z,0.00
2023-01-17T23:08:57.994Z,0.00
2023-01-17T23:11:39.842Z,0.00
2023-01-17T23:14:22.724Z,0.00
2023-01-17T23:17:28.217Z,0.00
2023-01-17T23:19:54.807Z,0.00
2023-01-17T23:22:24.566Z,0.00
2023-01-17T23:24:53.671Z,0.00
2023-01-17T23:27:47.671Z,0.00
2023-01-17T23:30:20.694Z,0.00
2023-01-17T23:32:56.727Z,0.00
2023-01-17T23:35:26.585Z,0.00
2023-01-17T23:38:12.059Z,0.00
2023-01-17T23:40:39.403Z,0.00
2023-01-17T23:43:24.741Z,1.00
2023-01-17T23:45:53.402Z,1.00
2023-01-17T23:48:21.099Z,2.00
2023-01-17T23:50:48.688Z,1.00
2023-01-17T23:53:22.497Z,1.00
2023-01-17T23:55:56.893Z,0.00
2023-01-17T23:58:25.839Z,2.50
